YBA weather

Banff Airport
Banff, Alberta, Canada

Public forecast

Using degrees Celsius for public forecast. Weather courtesy of forecast.io.

Closest aviation weather report (METAR) to Banff Airport

Closest report is Calgary / Springbank Airport, 44.4 nm (82.3 km) E. Retrieved 2020/05/29 18:00 UTC (53 minutes ago):

CYBW 291800Z AUTO 05009KT 030V110 9SM OVC170 17/05 A3012 RMK SLP202 DENSITY ALT 4800FT

Closest aviation forecast (TAF) to Banff Airport

Closest forecast is Calgary / Springbank Airport, 44.4 nm (82.3 km) E. Retrieved 2020/05/29 18:00 UTC (53 minutes ago):

TAF CYBW 291745Z 2918/3004 03008KT P6SM SKC BECMG 2918/2920 12006KT FM292200 12008KT P6SM SCT070 FM300000 08005KT P6SM SCT070 TEMPO 3000/3004 P6SM VCSH BKN070 RMK FCST BASED ON AUTO OBS NXT FCST BY 300000Z